sensor_id;sensor_type;location;lat;lon;timestamp;P1;durP1;ratioP1;P2;durP2;ratioP2
47113;SDS011;32867;51.556;6.832;2024-03-23T00:56:36;7.30;;;2.40;;
47113;SDS011;32867;51.556;6.832;2024-03-23T01:01:37;8.48;;;2.70;;
47113;SDS011;32867;51.556;6.832;2024-03-23T01:06:37;15.35;;;2.55;;
47113;SDS011;32867;51.556;6.832;2024-03-23T01:11:38;5.78;;;2.05;;
47113;SDS011;32867;51.556;6.832;2024-03-23T01:16:39;6.00;;;1.98;;
47113;SDS011;32867;51.556;6.832;2024-03-23T01:21:40;5.68;;;1.90;;
47113;SDS011;32867;51.556;6.832;2024-03-23T01:26:41;5.63;;;1.77;;
47113;SDS011;32867;51.556;6.832;2024-03-23T01:31:41;5.55;;;1.30;;
47113;SDS011;32867;51.556;6.832;2024-03-23T01:36:42;9.90;;;2.20;;
47113;SDS011;32867;51.556;6.832;2024-03-23T01:41:43;4.78;;;1.60;;
47113;SDS011;32867;51.556;6.832;2024-03-23T01:46:43;7.57;;;1.88;;
47113;SDS011;32867;51.556;6.832;2024-03-23T01:51:44;7.32;;;2.00;;
47113;SDS011;32867;51.556;6.832;2024-03-23T01:56:45;6.35;;;1.95;;
47113;SDS011;32867;51.556;6.832;2024-03-23T02:01:46;6.45;;;2.42;;
47113;SDS011;32867;51.556;6.832;2024-03-23T02:06:48;7.20;;;1.85;;
47113;SDS011;32867;51.556;6.832;2024-03-23T02:11:49;6.50;;;1.80;;
47113;SDS011;32867;51.556;6.832;2024-03-23T02:16:50;7.35;;;2.00;;
47113;SDS011;32867;51.556;6.832;2024-03-23T02:21:50;5.07;;;1.85;;
47113;SDS011;32867;51.556;6.832;2024-03-23T02:26:51;9.38;;;1.98;;
47113;SDS011;32867;51.556;6.832;2024-03-23T02:31:51;3.92;;;1.70;;
47113;SDS011;32867;51.556;6.832;2024-03-23T02:36:52;5.22;;;1.58;;
47113;SDS011;32867;51.556;6.832;2024-03-23T02:41:53;5.85;;;1.90;;
47113;SDS011;32867;51.556;6.832;2024-03-23T02:46:53;5.80;;;2.25;;
47113;SDS011;32867;51.556;6.832;2024-03-23T02:51:54;7.35;;;2.38;;
47113;SDS011;32867;51.556;6.832;2024-03-23T02:56:54;12.45;;;2.88;;
47113;SDS011;32867;51.556;6.832;2024-03-23T03:01:55;7.60;;;2.28;;
47113;SDS011;32867;51.556;6.832;2024-03-23T03:06:56;10.32;;;2.63;;
47113;SDS011;32867;51.556;6.832;2024-03-23T03:11:57;10.10;;;2.70;;
47113;SDS011;32867;51.556;6.832;2024-03-23T03:16:57;8.20;;;2.75;;
47113;SDS011;32867;51.556;6.832;2024-03-23T03:21:58;6.88;;;2.25;;
47113;SDS011;32867;51.556;6.832;2024-03-23T03:26:58;10.32;;;2.40;;
47113;SDS011;32867;51.556;6.832;2024-03-23T03:31:59;11.63;;;2.60;;
47113;SDS011;32867;51.556;6.832;2024-03-23T03:37:00;6.53;;;2.38;;
47113;SDS011;32867;51.556;6.832;2024-03-23T03:42:02;5.32;;;1.88;;
47113;SDS011;32867;51.556;6.832;2024-03-23T03:47:06;10.40;;;2.55;;
47113;SDS011;32867;51.556;6.832;2024-03-23T03:52:07;7.72;;;2.30;;
47113;SDS011;32867;51.556;6.832;2024-03-23T03:57:08;8.98;;;2.00;;
47113;SDS011;32867;51.556;6.832;2024-03-23T04:02:08;8.02;;;2.30;;
47113;SDS011;32867;51.556;6.832;2024-03-23T04:07:09;7.57;;;2.15;;
47113;SDS011;32867;51.556;6.832;2024-03-23T04:12:09;7.75;;;2.10;;
47113;SDS011;32867;51.556;6.832;2024-03-23T04:17:10;10.55;;;2.15;;
47113;SDS011;32867;51.556;6.832;2024-03-23T04:22:11;9.43;;;2.40;;
47113;SDS011;32867;51.556;6.832;2024-03-23T04:27:12;8.75;;;2.50;;
47113;SDS011;32867;51.556;6.832;2024-03-23T04:32:12;10.93;;;2.60;;
47113;SDS011;32867;51.556;6.832;2024-03-23T04:37:14;14.75;;;2.72;;
47113;SDS011;32867;51.556;6.832;2024-03-23T04:42:16;12.95;;;2.90;;
47113;SDS011;32867;51.556;6.832;2024-03-23T04:47:17;6.03;;;2.70;;
47113;SDS011;32867;51.556;6.832;2024-03-23T04:52:18;10.05;;;3.15;;
47113;SDS011;32867;51.556;6.832;2024-03-23T04:57:19;13.48;;;3.33;;
47113;SDS011;32867;51.556;6.832;2024-03-23T05:02:22;14.45;;;3.70;;
47113;SDS011;32867;51.556;6.832;2024-03-23T05:07:23;13.32;;;4.00;;
47113;SDS011;32867;51.556;6.832;2024-03-23T05:12:24;12.63;;;4.28;;
47113;SDS011;32867;51.556;6.832;2024-03-23T05:17:24;10.82;;;3.75;;
47113;SDS011;32867;51.556;6.832;2024-03-23T05:22:25;14.60;;;4.10;;
47113;SDS011;32867;51.556;6.832;2024-03-23T05:27:27;16.80;;;4.18;;
47113;SDS011;32867;51.556;6.832;2024-03-23T05:32:27;15.65;;;5.03;;
47113;SDS011;32867;51.556;6.832;2024-03-23T05:37:28;14.73;;;4.82;;
47113;SDS011;32867;51.556;6.832;2024-03-23T05:42:31;14.65;;;5.15;;
47113;SDS011;32867;51.556;6.832;2024-03-23T05:47:32;13.38;;;4.85;;
47113;SDS011;32867;51.556;6.832;2024-03-23T05:52:32;15.35;;;5.30;;
47113;SDS011;32867;51.556;6.832;2024-03-23T05:57:33;10.63;;;4.70;;
47113;SDS011;32867;51.556;6.832;2024-03-23T06:02:34;19.52;;;5.15;;
47113;SDS011;32867;51.556;6.832;2024-03-23T06:07:34;13.50;;;4.85;;
47113;SDS011;32867;51.556;6.832;2024-03-23T06:12:35;12.63;;;4.38;;
47113;SDS011;32867;51.556;6.832;2024-03-23T06:17:36;13.70;;;4.38;;
47113;SDS011;32867;51.556;6.832;2024-03-23T06:22:37;14.05;;;4.78;;
47113;SDS011;32867;51.556;6.832;2024-03-23T06:27:38;11.80;;;4.18;;
47113;SDS011;32867;51.556;6.832;2024-03-23T06:32:42;9.80;;;4.32;;
47113;SDS011;32867;51.556;6.832;2024-03-23T06:37:42;13.02;;;4.20;;
47113;SDS011;32867;51.556;6.832;2024-03-23T06:42:43;10.65;;;4.32;;
47113;SDS011;32867;51.556;6.832;2024-03-23T06:47:44;16.00;;;4.80;;
47113;SDS011;32867;51.556;6.832;2024-03-23T06:52:44;17.95;;;4.90;;
47113;SDS011;32867;51.556;6.832;2024-03-23T06:57:45;12.57;;;3.88;;
47113;SDS011;32867;51.556;6.832;2024-03-23T07:02:46;11.73;;;4.65;;
47113;SDS011;32867;51.556;6.832;2024-03-23T07:07:46;12.65;;;4.20;;
47113;SDS011;32867;51.556;6.832;2024-03-23T07:12:47;14.93;;;4.80;;
47113;SDS011;32867;51.556;6.832;2024-03-23T07:17:48;14.43;;;5.30;;
47113;SDS011;32867;51.556;6.832;2024-03-23T07:22:49;11.57;;;4.65;;
47113;SDS011;32867;51.556;6.832;2024-03-23T07:27:49;13.95;;;5.40;;
47113;SDS011;32867;51.556;6.832;2024-03-23T07:32:50;16.67;;;5.53;;
47113;SDS011;32867;51.556;6.832;2024-03-23T07:37:50;13.57;;;5.15;;
47113;SDS011;32867;51.556;6.832;2024-03-23T07:42:51;15.63;;;5.70;;
47113;SDS011;32867;51.556;6.832;2024-03-23T07:47:53;17.13;;;6.05;;
47113;SDS011;32867;51.556;6.832;2024-03-23T07:52:53;15.25;;;5.35;;
47113;SDS011;32867;51.556;6.832;2024-03-23T07:57:54;14.38;;;5.28;;
47113;SDS011;32867;51.556;6.832;2024-03-23T08:02:54;16.42;;;5.93;;
47113;SDS011;32867;51.556;6.832;2024-03-23T08:07:55;14.90;;;5.78;;
47113;SDS011;32867;51.556;6.832;2024-03-23T08:12:56;16.90;;;5.22;;
47113;SDS011;32867;51.556;6.832;2024-03-23T08:17:56;15.15;;;4.82;;
47113;SDS011;32867;51.556;6.832;2024-03-23T08:22:57;14.38;;;4.95;;
47113;SDS011;32867;51.556;6.832;2024-03-23T08:27:58;12.88;;;3.90;;
47113;SDS011;32867;51.556;6.832;2024-03-23T08:32:59;15.93;;;4.53;;
47113;SDS011;32867;51.556;6.832;2024-03-23T08:37:59;15.45;;;4.50;;
47113;SDS011;32867;51.556;6.832;2024-03-23T08:43:00;14.00;;;3.75;;
47113;SDS011;32867;51.556;6.832;2024-03-23T08:48:00;9.75;;;4.10;;
47113;SDS011;32867;51.556;6.832;2024-03-23T08:53:01;15.07;;;3.60;;
47113;SDS011;32867;51.556;6.832;2024-03-23T08:58:02;11.43;;;3.70;;
47113;SDS011;32867;51.556;6.832;2024-03-23T09:03:04;6.30;;;2.60;;
47113;SDS011;32867;51.556;6.832;2024-03-23T09:08:05;8.80;;;3.10;;
47113;SDS011;32867;51.556;6.832;2024-03-23T09:13:06;11.43;;;3.22;;
47113;SDS011;32867;51.556;6.832;2024-03-23T09:18:07;12.27;;;3.10;;
47113;SDS011;32867;51.556;6.832;2024-03-23T09:23:08;11.23;;;3.17;;
47113;SDS011;32867;51.556;6.832;2024-03-23T09:28:09;11.48;;;3.13;;
47113;SDS011;32867;51.556;6.832;2024-03-23T09:33:10;12.68;;;3.08;;
47113;SDS011;32867;51.556;6.832;2024-03-23T09:38:11;12.82;;;3.28;;
47113;SDS011;32867;51.556;6.832;2024-03-23T09:43:12;11.93;;;3.40;;
47113;SDS011;32867;51.556;6.832;2024-03-23T09:48:12;11.27;;;2.95;;
47113;SDS011;32867;51.556;6.832;2024-03-23T09:53:13;12.07;;;3.25;;
47113;SDS011;32867;51.556;6.832;2024-03-23T09:58:17;11.57;;;3.20;;
47113;SDS011;32867;51.556;6.832;2024-03-23T10:03:18;11.43;;;3.45;;
47113;SDS011;32867;51.556;6.832;2024-03-23T10:08:19;9.75;;;2.70;;
47113;SDS011;32867;51.556;6.832;2024-03-23T10:13:26;9.80;;;2.67;;
47113;SDS011;32867;51.556;6.832;2024-03-23T10:18:29;10.35;;;2.83;;
47113;SDS011;32867;51.556;6.832;2024-03-23T10:23:29;7.03;;;2.40;;
47113;SDS011;32867;51.556;6.832;2024-03-23T10:28:31;11.75;;;2.42;;
47113;SDS011;32867;51.556;6.832;2024-03-23T10:33:31;12.18;;;2.28;;
47113;SDS011;32867;51.556;6.832;2024-03-23T10:38:33;7.90;;;2.05;;
47113;SDS011;32867;51.556;6.832;2024-03-23T10:43:34;9.10;;;2.67;;
47113;SDS011;32867;51.556;6.832;2024-03-23T10:48:36;5.43;;;1.75;;
47113;SDS011;32867;51.556;6.832;2024-03-23T10:53:36;10.63;;;1.50;;
47113;SDS011;32867;51.556;6.832;2024-03-23T10:58:38;2.53;;;1.10;;
47113;SDS011;32867;51.556;6.832;2024-03-23T11:03:44;3.40;;;1.50;;
47113;SDS011;32867;51.556;6.832;2024-03-23T11:08:46;7.18;;;1.60;;
47113;SDS011;32867;51.556;6.832;2024-03-23T11:13:53;4.18;;;1.02;;
47113;SDS011;32867;51.556;6.832;2024-03-23T11:18:54;3.83;;;1.55;;
47113;SDS011;32867;51.556;6.832;2024-03-23T11:24:33;5.25;;;1.45;;
47113;SDS011;32867;51.556;6.832;2024-03-23T11:29:34;5.90;;;2.00;;
47113;SDS011;32867;51.556;6.832;2024-03-23T11:34:34;5.55;;;1.50;;
47113;SDS011;32867;51.556;6.832;2024-03-23T11:39:36;7.57;;;1.75;;
47113;SDS011;32867;51.556;6.832;2024-03-23T11:44:37;7.93;;;2.03;;
47113;SDS011;32867;51.556;6.832;2024-03-23T11:49:37;7.13;;;3.00;;
47113;SDS011;32867;51.556;6.832;2024-03-23T11:54:40;10.05;;;2.60;;
47113;SDS011;32867;51.556;6.832;2024-03-23T11:59:41;6.82;;;2.25;;
47113;SDS011;32867;51.556;6.832;2024-03-23T12:04:44;5.25;;;1.48;;
47113;SDS011;32867;51.556;6.832;2024-03-23T12:09:45;4.63;;;1.60;;
47113;SDS011;32867;51.556;6.832;2024-03-23T12:15:07;9.73;;;2.17;;
47113;SDS011;32867;51.556;6.832;2024-03-23T12:20:08;5.43;;;2.20;;
47113;SDS011;32867;51.556;6.832;2024-03-23T12:25:09;5.13;;;1.60;;
47113;SDS011;32867;51.556;6.832;2024-03-23T12:30:09;5.53;;;1.60;;
47113;SDS011;32867;51.556;6.832;2024-03-23T12:35:10;4.18;;;1.45;;
47113;SDS011;32867;51.556;6.832;2024-03-23T12:40:11;7.45;;;1.45;;
47113;SDS011;32867;51.556;6.832;2024-03-23T12:45:12;5.60;;;1.40;;
47113;SDS011;32867;51.556;6.832;2024-03-23T12:50:13;5.70;;;1.50;;
47113;SDS011;32867;51.556;6.832;2024-03-23T12:55:13;7.55;;;1.77;;
47113;SDS011;32867;51.556;6.832;2024-03-23T13:00:14;6.90;;;2.08;;
47113;SDS011;32867;51.556;6.832;2024-03-23T13:05:18;5.80;;;2.10;;
47113;SDS011;32867;51.556;6.832;2024-03-23T13:10:19;5.85;;;1.90;;
47113;SDS011;32867;51.556;6.832;2024-03-23T13:15:19;9.32;;;2.13;;
47113;SDS011;32867;51.556;6.832;2024-03-23T13:20:20;5.78;;;1.75;;
47113;SDS011;32867;51.556;6.832;2024-03-23T13:25:21;5.72;;;1.95;;
47113;SDS011;32867;51.556;6.832;2024-03-23T13:30:21;5.15;;;1.92;;
47113;SDS011;32867;51.556;6.832;2024-03-23T13:35:22;4.70;;;2.20;;
47113;SDS011;32867;51.556;6.832;2024-03-23T13:40:23;4.75;;;1.60;;
47113;SDS011;32867;51.556;6.832;2024-03-23T13:45:23;4.95;;;1.92;;
47113;SDS011;32867;51.556;6.832;2024-03-23T13:50:25;7.85;;;2.00;;
47113;SDS011;32867;51.556;6.832;2024-03-23T13:55:25;7.97;;;1.80;;
47113;SDS011;32867;51.556;6.832;2024-03-23T14:00:26;5.32;;;1.83;;
47113;SDS011;32867;51.556;6.832;2024-03-23T14:05:26;5.88;;;1.60;;
47113;SDS011;32867;51.556;6.832;2024-03-23T14:10:27;4.75;;;1.60;;
47113;SDS011;32867;51.556;6.832;2024-03-23T14:15:28;4.43;;;1.38;;
47113;SDS011;32867;51.556;6.832;2024-03-23T14:20:30;8.20;;;1.80;;
47113;SDS011;32867;51.556;6.832;2024-03-23T14:25:30;7.50;;;1.70;;
47113;SDS011;32867;51.556;6.832;2024-03-23T14:30:31;5.55;;;1.52;;
47113;SDS011;32867;51.556;6.832;2024-03-23T14:35:32;5.25;;;1.58;;
47113;SDS011;32867;51.556;6.832;2024-03-23T14:40:33;5.13;;;1.30;;
47113;SDS011;32867;51.556;6.832;2024-03-23T14:45:33;7.57;;;1.38;;
47113;SDS011;32867;51.556;6.832;2024-03-23T14:50:34;6.22;;;1.50;;
47113;SDS011;32867;51.556;6.832;2024-03-23T14:55:35;5.63;;;1.50;;
47113;SDS011;32867;51.556;6.832;2024-03-23T15:00:35;7.25;;;1.40;;
47113;SDS011;32867;51.556;6.832;2024-03-23T15:05:36;5.57;;;1.35;;
47113;SDS011;32867;51.556;6.832;2024-03-23T15:10:37;5.45;;;1.40;;
47113;SDS011;32867;51.556;6.832;2024-03-23T15:15:38;4.20;;;1.35;;
47113;SDS011;32867;51.556;6.832;2024-03-23T15:20:41;7.85;;;1.60;;
47113;SDS011;32867;51.556;6.832;2024-03-23T15:25:42;4.70;;;1.45;;
47113;SDS011;32867;51.556;6.832;2024-03-23T15:30:42;5.80;;;1.20;;
47113;SDS011;32867;51.556;6.832;2024-03-23T15:35:43;3.95;;;1.50;;
47113;SDS011;32867;51.556;6.832;2024-03-23T15:40:50;5.47;;;1.50;;
47113;SDS011;32867;51.556;6.832;2024-03-23T15:45:58;6.10;;;1.73;;
47113;SDS011;32867;51.556;6.832;2024-03-23T15:51:00;3.88;;;1.60;;
47113;SDS011;32867;51.556;6.832;2024-03-23T15:56:04;3.75;;;1.30;;
47113;SDS011;32867;51.556;6.832;2024-03-23T16:01:06;4.05;;;1.58;;
47113;SDS011;32867;51.556;6.832;2024-03-23T16:06:10;5.93;;;1.50;;
47113;SDS011;32867;51.556;6.832;2024-03-23T16:11:11;7.13;;;2.22;;
47113;SDS011;32867;51.556;6.832;2024-03-23T16:16:12;4.43;;;1.50;;
47113;SDS011;32867;51.556;6.832;2024-03-23T16:21:12;5.65;;;1.70;;
47113;SDS011;32867;51.556;6.832;2024-03-23T16:26:13;5.80;;;1.52;;
47113;SDS011;32867;51.556;6.832;2024-03-23T16:31:16;4.65;;;1.52;;
47113;SDS011;32867;51.556;6.832;2024-03-23T16:36:17;10.98;;;1.73;;
47113;SDS011;32867;51.556;6.832;2024-03-23T16:41:18;3.85;;;1.25;;
47113;SDS011;32867;51.556;6.832;2024-03-23T16:46:18;7.18;;;1.30;;
47113;SDS011;32867;51.556;6.832;2024-03-23T16:51:20;4.82;;;1.50;;
47113;SDS011;32867;51.556;6.832;2024-03-23T16:56:20;9.13;;;3.25;;
47113;SDS011;32867;51.556;6.832;2024-03-23T17:01:21;4.57;;;1.20;;
47113;SDS011;32867;51.556;6.832;2024-03-23T17:06:23;4.10;;;1.45;;
47113;SDS011;32867;51.556;6.832;2024-03-23T17:11:25;5.53;;;1.10;;
47113;SDS011;32867;51.556;6.832;2024-03-23T17:16:25;3.22;;;1.10;;
47113;SDS011;32867;51.556;6.832;2024-03-23T17:21:30;4.32;;;1.40;;
47113;SDS011;32867;51.556;6.832;2024-03-23T17:26:30;3.55;;;1.30;;
47113;SDS011;32867;51.556;6.832;2024-03-23T17:31:33;4.30;;;1.35;;
47113;SDS011;32867;51.556;6.832;2024-03-23T17:36:33;3.30;;;1.20;;
47113;SDS011;32867;51.556;6.832;2024-03-23T17:41:35;4.75;;;1.40;;
47113;SDS011;32867;51.556;6.832;2024-03-23T17:46:37;4.78;;;1.50;;
47113;SDS011;32867;51.556;6.832;2024-03-23T17:51:38;4.78;;;1.55;;
47113;SDS011;32867;51.556;6.832;2024-03-23T17:56:38;4.90;;;2.00;;
47113;SDS011;32867;51.556;6.832;2024-03-23T18:01:39;5.50;;;1.58;;
47113;SDS011;32867;51.556;6.832;2024-03-23T18:06:40;4.10;;;1.60;;
47113;SDS011;32867;51.556;6.832;2024-03-23T18:11:40;3.80;;;1.85;;
47113;SDS011;32867;51.556;6.832;2024-03-23T18:16:41;4.85;;;1.67;;
47113;SDS011;32867;51.556;6.832;2024-03-23T18:21:42;3.33;;;1.90;;
47113;SDS011;32867;51.556;6.832;2024-03-23T18:26:43;5.95;;;2.92;;
47113;SDS011;32867;51.556;6.832;2024-03-23T18:31:43;3.75;;;1.60;;
47113;SDS011;32867;51.556;6.832;2024-03-23T18:36:44;4.13;;;1.52;;
47113;SDS011;32867;51.556;6.832;2024-03-23T18:41:45;3.25;;;1.38;;
47113;SDS011;32867;51.556;6.832;2024-03-23T18:46:45;5.35;;;1.35;;
47113;SDS011;32867;51.556;6.832;2024-03-23T18:51:47;3.97;;;1.38;;
47113;SDS011;32867;51.556;6.832;2024-03-23T18:56:48;4.38;;;1.88;;
47113;SDS011;32867;51.556;6.832;2024-03-23T19:01:49;3.13;;;1.45;;
47113;SDS011;32867;51.556;6.832;2024-03-23T19:06:49;3.38;;;1.45;;
47113;SDS011;32867;51.556;6.832;2024-03-23T19:11:50;6.20;;;1.40;;
47113;SDS011;32867;51.556;6.832;2024-03-23T19:16:51;3.58;;;1.70;;
47113;SDS011;32867;51.556;6.832;2024-03-23T19:21:53;6.35;;;1.63;;
47113;SDS011;32867;51.556;6.832;2024-03-23T19:26:54;5.75;;;1.73;;
47113;SDS011;32867;51.556;6.832;2024-03-23T19:31:54;5.65;;;1.55;;
47113;SDS011;32867;51.556;6.832;2024-03-23T19:36:55;3.85;;;1.67;;
47113;SDS011;32867;51.556;6.832;2024-03-23T19:41:56;5.07;;;2.00;;
47113;SDS011;32867;51.556;6.832;2024-03-23T19:46:56;4.28;;;1.83;;
47113;SDS011;32867;51.556;6.832;2024-03-23T19:51:57;8.40;;;2.05;;
47113;SDS011;32867;51.556;6.832;2024-03-23T19:56:57;5.90;;;1.73;;
47113;SDS011;32867;51.556;6.832;2024-03-23T20:01:59;7.22;;;2.03;;
47113;SDS011;32867;51.556;6.832;2024-03-23T20:06:59;4.63;;;2.30;;
47113;SDS011;32867;51.556;6.832;2024-03-23T20:12:00;5.70;;;2.42;;
47113;SDS011;32867;51.556;6.832;2024-03-23T20:17:02;9.10;;;3.90;;
47113;SDS011;32867;51.556;6.832;2024-03-23T20:22:03;8.52;;;3.53;;
47113;SDS011;32867;51.556;6.832;2024-03-23T20:27:05;6.95;;;2.97;;
47113;SDS011;32867;51.556;6.832;2024-03-23T20:32:06;8.05;;;3.83;;
47113;SDS011;32867;51.556;6.832;2024-03-23T20:37:07;11.00;;;5.22;;
47113;SDS011;32867;51.556;6.832;2024-03-23T20:42:07;10.65;;;4.28;;
47113;SDS011;32867;51.556;6.832;2024-03-23T20:47:08;9.18;;;4.10;;
47113;SDS011;32867;51.556;6.832;2024-03-23T20:52:09;6.60;;;3.38;;
47113;SDS011;32867;51.556;6.832;2024-03-23T20:57:11;7.07;;;2.72;;
47113;SDS011;32867;51.556;6.832;2024-03-23T21:02:11;6.50;;;3.03;;
47113;SDS011;32867;51.556;6.832;2024-03-23T21:07:12;7.10;;;2.80;;
47113;SDS011;32867;51.556;6.832;2024-03-23T21:12:12;8.15;;;3.05;;
47113;SDS011;32867;51.556;6.832;2024-03-23T21:17:13;5.85;;;3.05;;
47113;SDS011;32867;51.556;6.832;2024-03-23T21:22:14;9.18;;;3.53;;
47113;SDS011;32867;51.556;6.832;2024-03-23T21:27:15;5.65;;;3.08;;
47113;SDS011;32867;51.556;6.832;2024-03-23T21:32:15;5.47;;;3.17;;
47113;SDS011;32867;51.556;6.832;2024-03-23T21:37:18;7.57;;;3.60;;
47113;SDS011;32867;51.556;6.832;2024-03-23T21:42:20;5.68;;;3.42;;
47113;SDS011;32867;51.556;6.832;2024-03-23T21:47:21;6.45;;;3.60;;
47113;SDS011;32867;51.556;6.832;2024-03-23T21:52:22;7.22;;;3.40;;
47113;SDS011;32867;51.556;6.832;2024-03-23T21:57:22;7.38;;;3.63;;
47113;SDS011;32867;51.556;6.832;2024-03-23T22:02:24;8.15;;;3.67;;
47113;SDS011;32867;51.556;6.832;2024-03-23T22:07:25;9.77;;;4.10;;
47113;SDS011;32867;51.556;6.832;2024-03-23T22:12:27;9.60;;;4.43;;
47113;SDS011;32867;51.556;6.832;2024-03-23T22:17:27;6.65;;;3.72;;
47113;SDS011;32867;51.556;6.832;2024-03-23T22:22:28;6.55;;;4.07;;
47113;SDS011;32867;51.556;6.832;2024-03-23T22:27:29;6.75;;;4.03;;
47113;SDS011;32867;51.556;6.832;2024-03-23T22:32:29;10.07;;;4.20;;
47113;SDS011;32867;51.556;6.832;2024-03-23T22:37:32;9.20;;;4.47;;
47113;SDS011;32867;51.556;6.832;2024-03-23T22:42:32;8.93;;;3.70;;
47113;SDS011;32867;51.556;6.832;2024-03-23T22:47:33;10.25;;;3.72;;
47113;SDS011;32867;51.556;6.832;2024-03-23T22:52:34;7.50;;;3.50;;
47113;SDS011;32867;51.556;6.832;2024-03-23T22:57:34;9.77;;;3.65;;
47113;SDS011;32867;51.556;6.832;2024-03-23T23:02:35;8.13;;;3.60;;
47113;SDS011;32867;51.556;6.832;2024-03-23T23:07:36;10.35;;;3.58;;
47113;SDS011;32867;51.556;6.832;2024-03-23T23:12:37;8.73;;;3.90;;
47113;SDS011;32867;51.556;6.832;2024-03-23T23:17:37;7.35;;;3.30;;
47113;SDS011;32867;51.556;6.832;2024-03-23T23:22:38;9.95;;;3.75;;
47113;SDS011;32867;51.556;6.832;2024-03-23T23:27:39;10.52;;;4.28;;
47113;SDS011;32867;51.556;6.832;2024-03-23T23:32:41;9.85;;;3.95;;
47113;SDS011;32867;51.556;6.832;2024-03-23T23:37:42;10.70;;;4.10;;
47113;SDS011;32867;51.556;6.832;2024-03-23T23:42:42;7.32;;;3.63;;
47113;SDS011;32867;51.556;6.832;2024-03-23T23:47:43;9.95;;;4.13;;
47113;SDS011;32867;51.556;6.832;2024-03-23T23:52:44;7.30;;;3.63;;
47113;SDS011;32867;51.556;6.832;2024-03-23T23:57:44;9.45;;;4.00;;
